createdAt,value
2022-12-24T00:01:20.952Z,4.00
2022-12-24T00:03:47.969Z,3.43
2022-12-24T00:06:23.971Z,3.40
2022-12-24T00:08:53.911Z,3.17
2022-12-24T00:11:21.324Z,3.70
2022-12-24T00:13:49.202Z,4.13
2022-12-24T00:16:16.061Z,4.20
2022-12-24T00:18:46.997Z,3.77
2022-12-24T00:21:17.701Z,3.93
2022-12-24T00:23:44.903Z,4.70
2022-12-24T00:26:15.541Z,3.40
2022-12-24T00:28:42.415Z,4.30
2022-12-24T00:31:14.942Z,4.33
2022-12-24T00:33:41.977Z,4.73
2022-12-24T00:36:09.776Z,4.40
2022-12-24T00:38:37.083Z,4.20
2022-12-24T00:41:05.909Z,3.97
2022-12-24T00:43:33.601Z,3.60
2022-12-24T00:46:00.480Z,4.40
2022-12-24T00:48:28.409Z,4.50
2022-12-24T00:50:55.257Z,4.03
2022-12-24T00:53:22.055Z,4.73
2022-12-24T00:55:48.967Z,3.97
2022-12-24T00:58:18.594Z,4.47
2022-12-24T01:00:47.326Z,4.20
2022-12-24T01:03:14.266Z,5.10
2022-12-24T01:05:41.117Z,4.47
2022-12-24T01:08:10.949Z,4.20
2022-12-24T01:10:37.740Z,3.83
2022-12-24T01:13:04.577Z,3.73
2022-12-24T01:15:31.579Z,3.40
2022-12-24T01:17:59.075Z,4.37
2022-12-24T01:20:31.565Z,4.10
2022-12-24T01:23:01.713Z,4.07
2022-12-24T01:25:28.544Z,3.87
2022-12-24T01:27:55.539Z,4.27
2022-12-24T01:30:22.568Z,4.67
2022-12-24T01:32:49.406Z,4.73
2022-12-24T01:35:16.304Z,3.60
2022-12-24T01:37:46.068Z,4.83
2022-12-24T01:40:36.938Z,4.00
2022-12-24T01:43:25.298Z,4.00
2022-12-24T01:45:58.566Z,3.47
2022-12-24T01:48:25.279Z,3.93
2022-12-24T01:50:57.951Z,4.27
2022-12-24T01:53:24.995Z,3.37
2022-12-24T01:55:52.542Z,3.67
2022-12-24T01:58:21.504Z,4.70
2022-12-24T02:00:51.305Z,3.20
2022-12-24T02:03:21.605Z,4.13
2022-12-24T02:05:54.062Z,3.53
2022-12-24T02:08:22.307Z,3.83
2022-12-24T02:10:50.485Z,4.30
2022-12-24T02:13:20.641Z,3.57
2022-12-24T02:16:07.254Z,3.97
2022-12-24T02:18:59.624Z,4.50
2022-12-24T02:21:29.324Z,4.60
2022-12-24T02:24:08.280Z,4.40
2022-12-24T02:26:48.517Z,3.97
2022-12-24T02:29:37.916Z,4.83
2022-12-24T02:32:21.465Z,4.77
2022-12-24T02:34:57.778Z,3.77
2022-12-24T02:37:53.317Z,4.80
2022-12-24T02:40:35.905Z,6.13
2022-12-24T02:43:09.647Z,5.07
2022-12-24T02:45:40.164Z,4.63
2022-12-24T02:48:07.936Z,5.40
2022-12-24T02:50:38.744Z,4.60
2022-12-24T02:53:06.604Z,5.30
2022-12-24T02:55:51.038Z,5.57
2022-12-24T02:58:56.752Z,5.40
2022-12-24T03:01:50.546Z,4.53
2022-12-24T03:04:39.589Z,5.07
2022-12-24T03:07:17.259Z,4.90
2022-12-24T03:09:54.118Z,5.27
2022-12-24T03:12:44.634Z,4.77
2022-12-24T03:15:15.974Z,6.27
2022-12-24T03:17:48.251Z,4.47
2022-12-24T03:20:20.926Z,5.40
2022-12-24T03:22:47.660Z,6.43
2022-12-24T03:25:14.452Z,4.27
2022-12-24T03:27:42.026Z,4.07
2022-12-24T03:30:11.880Z,4.33
2022-12-24T03:32:38.820Z,5.10
2022-12-24T03:35:09.802Z,5.27
2022-12-24T03:37:36.647Z,5.13
2022-12-24T03:40:05.130Z,5.90
2022-12-24T03:42:32.032Z,5.07
2022-12-24T03:44:58.767Z,4.63
2022-12-24T03:47:25.592Z,5.27
2022-12-24T03:49:52.833Z,5.20
2022-12-24T03:52:19.603Z,4.60
2022-12-24T03:54:46.385Z,5.33
2022-12-24T03:57:13.368Z,4.00
2022-12-24T03:59:40.283Z,5.10
2022-12-24T04:02:07.233Z,5.07
2022-12-24T04:04:36.797Z,4.30
2022-12-24T04:07:05.523Z,5.43
2022-12-24T04:09:32.317Z,4.63
2022-12-24T04:12:01.396Z,5.23
2022-12-24T04:14:28.168Z,5.53
2022-12-24T04:16:55.067Z,5.37
2022-12-24T04:19:21.896Z,4.63
2022-12-24T04:21:48.818Z,5.70
2022-12-24T04:24:15.573Z,5.00
2022-12-24T04:26:42.415Z,5.10
2022-12-24T04:29:09.279Z,4.73
2022-12-24T04:31:36.155Z,5.70
2022-12-24T04:34:02.979Z,5.93
2022-12-24T04:36:29.915Z,5.07
2022-12-24T04:38:57.041Z,5.50
2022-12-24T04:41:25.196Z,4.90
2022-12-24T04:43:55.848Z,5.17
2022-12-24T04:46:25.586Z,5.10
2022-12-24T04:48:54.425Z,5.40
2022-12-24T04:51:21.456Z,4.50
2022-12-24T04:53:51.456Z,4.80
2022-12-24T04:56:26.337Z,4.90
2022-12-24T04:58:54.194Z,5.23
2022-12-24T05:01:26.173Z,5.57
2022-12-24T05:03:53.801Z,5.33
2022-12-24T05:06:24.037Z,4.60
2022-12-24T05:08:53.381Z,4.90
2022-12-24T05:11:20.246Z,5.70
2022-12-24T05:13:48.260Z,5.47
2022-12-24T05:16:17.455Z,5.50
2022-12-24T05:18:44.429Z,4.70
2022-12-24T05:21:14.385Z,5.60
2022-12-24T05:24:00.020Z,5.23
2022-12-24T05:26:34.102Z,4.97
2022-12-24T05:29:04.054Z,5.17
2022-12-24T05:31:33.464Z,5.83
2022-12-24T05:34:01.585Z,5.90
2022-12-24T05:36:28.420Z,5.37
2022-12-24T05:38:55.311Z,5.47
2022-12-24T05:41:22.886Z,5.90
2022-12-24T05:43:49.860Z,5.67
2022-12-24T05:46:19.291Z,5.00
2022-12-24T05:48:49.891Z,6.43
2022-12-24T05:51:19.693Z,5.87
2022-12-24T05:53:47.876Z,5.83
2022-12-24T05:56:17.443Z,6.03
2022-12-24T05:58:45.045Z,6.00
2022-12-24T06:01:12.958Z,5.97
2022-12-24T06:03:40.548Z,6.67
2022-12-24T06:06:15.958Z,4.67
2022-12-24T06:08:45.838Z,6.43
2022-12-24T06:11:14.821Z,6.13
2022-12-24T06:13:42.396Z,5.80
2022-12-24T06:16:14.845Z,5.67
2022-12-24T06:18:42.281Z,6.17
2022-12-24T06:21:10.028Z,5.03
2022-12-24T06:23:39.222Z,6.10
2022-12-24T06:26:10.204Z,4.93
2022-12-24T06:28:38.348Z,5.80
2022-12-24T06:31:06.876Z,4.60
2022-12-24T06:33:34.707Z,4.83
2022-12-24T06:36:01.581Z,4.73
2022-12-24T06:38:31.177Z,5.40
2022-12-24T06:40:58.052Z,5.13
2022-12-24T06:43:25.012Z,4.93
2022-12-24T06:45:51.793Z,5.10
2022-12-24T06:48:18.546Z,5.37
2022-12-24T06:50:45.348Z,5.33
2022-12-24T06:53:12.239Z,5.23
2022-12-24T06:55:39.955Z,5.53
2022-12-24T06:58:06.928Z,5.50
2022-12-24T07:00:33.748Z,4.73
2022-12-24T07:03:00.628Z,5.20
2022-12-24T07:05:28.057Z,4.83
2022-12-24T07:07:54.980Z,5.20
2022-12-24T07:10:21.995Z,5.23
2022-12-24T07:12:49.090Z,4.90
2022-12-24T07:15:16.631Z,5.30
2022-12-24T07:17:43.963Z,6.07
2022-12-24T07:20:14.926Z,5.07
2022-12-24T07:22:42.400Z,4.97
2022-12-24T07:25:10.238Z,4.30
2022-12-24T07:27:37.100Z,4.57
2022-12-24T07:30:05.432Z,5.20
2022-12-24T07:32:35.150Z,4.67
2022-12-24T07:35:08.207Z,4.87
2022-12-24T07:37:35.245Z,4.90
2022-12-24T07:40:02.468Z,5.17
2022-12-24T07:42:29.290Z,4.43
2022-12-24T07:44:56.099Z,4.60
2022-12-24T07:47:22.941Z,5.53
2022-12-24T07:49:49.757Z,4.97
2022-12-24T07:52:16.796Z,5.00
2022-12-24T07:54:43.497Z,5.63
2022-12-24T07:57:10.350Z,6.03
2022-12-24T07:59:37.436Z,6.10
2022-12-24T08:02:04.348Z,5.17
2022-12-24T08:04:37.501Z,5.40
2022-12-24T08:07:09.210Z,4.57
2022-12-24T08:09:37.472Z,5.07
2022-12-24T08:12:04.852Z,5.23
2022-12-24T08:14:32.383Z,6.13
2022-12-24T08:16:59.167Z,6.10
2022-12-24T08:19:25.985Z,6.13
2022-12-24T08:21:52.781Z,6.40
2022-12-24T08:24:19.602Z,6.07
2022-12-24T08:26:46.393Z,5.87
2022-12-24T08:29:13.169Z,6.33
2022-12-24T08:31:40.009Z,5.67
2022-12-24T08:34:09.045Z,6.33
2022-12-24T08:36:36.078Z,5.90
2022-12-24T08:39:03.750Z,6.30
2022-12-24T08:41:33.251Z,6.17
2022-12-24T08:44:02.789Z,6.57
2022-12-24T08:46:29.648Z,6.73
2022-12-24T08:48:56.356Z,6.20
2022-12-24T08:51:23.201Z,6.67
2022-12-24T08:53:49.956Z,5.87
2022-12-24T08:56:19.547Z,5.57
2022-12-24T08:58:46.304Z,5.80
2022-12-24T09:01:16.170Z,5.93
2022-12-24T09:03:43.678Z,5.57
2022-12-24T09:06:10.865Z,5.33
2022-12-24T09:08:38.164Z,6.40
2022-12-24T09:11:06.866Z,5.63
2022-12-24T09:13:34.142Z,5.20
2022-12-24T09:16:00.972Z,6.33
2022-12-24T09:18:27.918Z,5.93
2022-12-24T09:21:07.458Z,5.87
2022-12-24T09:23:42.948Z,5.13
2022-12-24T09:26:31.517Z,5.43
2022-12-24T09:29:00.788Z,6.60
2022-12-24T09:31:28.083Z,5.20
2022-12-24T09:33:55.337Z,5.70
2022-12-24T09:36:22.208Z,6.67
2022-12-24T09:38:49.472Z,5.57
2022-12-24T09:41:45.404Z,6.07
2022-12-24T09:44:52.717Z,5.83
2022-12-24T09:47:34.222Z,5.93
2022-12-24T09:50:04.074Z,5.73
2022-12-24T09:52:40.106Z,6.20
2022-12-24T09:55:20.815Z,5.97
2022-12-24T09:57:50.248Z,6.13
2022-12-24T10:00:27.693Z,6.60
2022-12-24T10:02:57.130Z,5.67
2022-12-24T10:05:29.336Z,5.50
2022-12-24T10:08:42.253Z,6.10
2022-12-24T10:11:45.143Z,5.57
2022-12-24T10:14:42.287Z,5.83
2022-12-24T10:17:33.810Z,6.23
2022-12-24T10:20:41.010Z,5.83
2022-12-24T10:23:32.681Z,5.80
2022-12-24T10:26:17.499Z,5.20
2022-12-24T10:29:09.107Z,4.30
2022-12-24T10:31:39.719Z,5.07
2022-12-24T10:34:15.624Z,4.17
2022-12-24T10:36:42.434Z,4.00
2022-12-24T10:39:19.319Z,4.57
2022-12-24T10:41:51.660Z,4.20
2022-12-24T10:44:25.099Z,5.40
2022-12-24T10:46:51.787Z,5.20
2022-12-24T10:49:35.236Z,6.40
2022-12-24T10:52:10.924Z,5.20
2022-12-24T10:54:40.436Z,5.07
2022-12-24T10:57:25.176Z,5.07
2022-12-24T10:59:54.911Z,5.63
2022-12-24T11:02:42.520Z,4.70
2022-12-24T11:05:27.967Z,4.67
2022-12-24T11:08:14.103Z,5.03
2022-12-24T11:10:44.279Z,4.30
2022-12-24T11:13:39.125Z,4.87
2022-12-24T11:16:18.460Z,4.60
2022-12-24T11:18:54.384Z,5.20
2022-12-24T11:21:31.293Z,3.60
2022-12-24T11:24:09.497Z,4.67
2022-12-24T11:26:36.287Z,5.20
2022-12-24T11:29:19.416Z,4.10
2022-12-24T11:31:47.594Z,4.50
2022-12-24T11:34:29.975Z,5.57
2022-12-24T11:37:21.656Z,4.17
2022-12-24T11:39:54.695Z,4.03
2022-12-24T11:42:37.176Z,4.30
2022-12-24T11:45:08.630Z,4.27
2022-12-24T11:47:37.903Z,3.90
2022-12-24T11:50:36.591Z,4.00
2022-12-24T11:53:03.285Z,4.17
2022-12-24T11:55:36.603Z,3.80
2022-12-24T11:58:36.914Z,4.13
2022-12-24T12:01:23.930Z,3.30
2022-12-24T12:03:55.584Z,3.73
2022-12-24T12:06:50.745Z,4.20
2022-12-24T12:09:24.730Z,3.43
2022-12-24T12:12:05.019Z,4.00
2022-12-24T12:14:43.070Z,3.80
2022-12-24T12:17:30.395Z,4.37
2022-12-24T12:20:09.752Z,3.57
2022-12-24T12:22:59.548Z,4.07
2022-12-24T12:25:34.079Z,3.67
2022-12-24T12:28:03.464Z,3.70
2022-12-24T12:30:31.981Z,3.60
2022-12-24T12:33:41.010Z,2.80
2022-12-24T12:36:11.036Z,3.27
2022-12-24T12:38:40.805Z,3.53
2022-12-24T12:41:26.294Z,3.40
2022-12-24T12:43:59.378Z,3.63
2022-12-24T12:47:00.088Z,3.60
2022-12-24T12:49:32.536Z,3.10
2022-12-24T12:52:09.576Z,3.47
2022-12-24T12:54:51.514Z,3.40
2022-12-24T12:57:24.151Z,3.17
2022-12-24T12:59:57.180Z,3.43
2022-12-24T13:02:45.244Z,3.57
2022-12-24T13:05:24.211Z,3.47
2022-12-24T13:07:53.991Z,3.83
2022-12-24T13:10:36.324Z,4.13
2022-12-24T13:13:29.484Z,4.73
2022-12-24T13:16:13.291Z,4.40
2022-12-24T13:18:55.115Z,3.67
2022-12-24T13:21:26.309Z,3.93
2022-12-24T13:24:14.763Z,3.90
2022-12-24T13:26:43.956Z,4.17
2022-12-24T13:29:34.571Z,4.00
2022-12-24T13:32:20.132Z,3.43
2022-12-24T13:34:56.100Z,4.00
2022-12-24T13:37:34.148Z,4.30
2022-12-24T13:40:05.802Z,3.90
2022-12-24T13:42:49.815Z,4.13
2022-12-24T13:45:31.998Z,4.07
2022-12-24T13:48:14.728Z,3.63
2022-12-24T13:50:46.752Z,3.90
2022-12-24T13:53:33.880Z,3.77
2022-12-24T13:56:12.887Z,3.67
2022-12-24T13:58:46.439Z,4.13
2022-12-24T14:01:17.022Z,4.23
2022-12-24T14:03:56.959Z,3.60
2022-12-24T14:06:39.438Z,3.50
2022-12-24T14:09:23.228Z,4.03
2022-12-24T14:11:59.285Z,3.43
2022-12-24T14:14:41.038Z,4.00
2022-12-24T14:17:29.802Z,3.40
2022-12-24T14:19:58.944Z,4.80
2022-12-24T14:22:38.886Z,4.70
2022-12-24T14:25:19.033Z,4.00
2022-12-24T14:27:52.001Z,4.43
2022-12-24T14:30:23.061Z,4.87
2022-12-24T14:32:51.770Z,4.30
2022-12-24T14:35:21.672Z,4.40
2022-12-24T14:38:06.842Z,4.50
2022-12-24T14:40:38.980Z,4.60
2022-12-24T14:43:26.121Z,4.60
2022-12-24T14:46:30.783Z,4.53
2022-12-24T14:49:24.486Z,4.47
2022-12-24T14:52:38.064Z,4.00
2022-12-24T14:55:41.082Z,4.67
2022-12-24T14:58:22.003Z,3.83
2022-12-24T15:00:49.053Z,5.00
2022-12-24T15:03:18.546Z,4.03
2022-12-24T15:05:49.290Z,4.53
2022-12-24T15:08:25.977Z,5.03
2022-12-24T15:10:54.961Z,4.17
2022-12-24T15:13:24.143Z,4.53
2022-12-24T15:15:53.513Z,5.00
2022-12-24T15:18:28.563Z,3.77
2022-12-24T15:21:03.979Z,4.33
2022-12-24T15:23:37.144Z,5.10
2022-12-24T15:26:36.585Z,4.23
2022-12-24T15:29:27.809Z,5.30
2022-12-24T15:31:58.956Z,5.57
2022-12-24T15:34:43.933Z,5.00
2022-12-24T15:37:10.631Z,4.80
2022-12-24T15:39:39.283Z,4.93
2022-12-24T15:42:14.326Z,6.10
2022-12-24T15:45:01.906Z,6.77
2022-12-24T15:47:39.559Z,18.80
2022-12-24T15:50:35.367Z,13.30
2022-12-24T15:53:20.197Z,7.93
2022-12-24T15:56:00.164Z,7.53
2022-12-24T15:58:30.360Z,7.00
2022-12-24T16:01:30.360Z,6.57
2022-12-24T16:04:00.643Z,7.37
2022-12-24T16:06:28.433Z,7.37
2022-12-24T16:08:56.539Z,7.03
2022-12-24T16:11:28.545Z,8.53
2022-12-24T16:13:55.230Z,8.33
2022-12-24T16:16:37.371Z,7.50
2022-12-24T16:19:05.867Z,9.70
2022-12-24T16:21:41.555Z,8.00
2022-12-24T16:24:25.316Z,9.83
2022-12-24T16:26:52.514Z,9.37
2022-12-24T16:29:19.862Z,10.73
2022-12-24T16:31:58.476Z,9.87
2022-12-24T16:34:30.545Z,9.27
2022-12-24T16:36:58.927Z,9.70
2022-12-24T16:39:31.290Z,10.20
2022-12-24T16:42:18.893Z,9.00
2022-12-24T16:44:46.863Z,9.50
2022-12-24T16:47:25.333Z,8.40
2022-12-24T16:49:52.347Z,10.20
2022-12-24T16:52:22.490Z,10.07
2022-12-24T16:54:50.364Z,9.00
2022-12-24T16:57:17.707Z,9.57
2022-12-24T16:59:44.906Z,9.70
2022-12-24T17:02:17.672Z,10.37
2022-12-24T17:04:45.449Z,10.77
2022-12-24T17:07:13.853Z,10.13
2022-12-24T17:09:40.800Z,10.07
2022-12-24T17:12:07.894Z,11.10
2022-12-24T17:14:34.844Z,10.20
2022-12-24T17:17:01.732Z,10.60
2022-12-24T17:19:28.483Z,10.30
2022-12-24T17:21:55.273Z,9.43
2022-12-24T17:24:22.282Z,10.43
2022-12-24T17:26:49.264Z,11.27
2022-12-24T17:29:15.999Z,10.37
2022-12-24T17:31:43.074Z,10.70
2022-12-24T17:34:10.221Z,10.13
2022-12-24T17:36:36.975Z,9.67
2022-12-24T17:39:03.901Z,9.60
2022-12-24T17:41:30.704Z,9.60
2022-12-24T17:43:58.774Z,9.33
2022-12-24T17:46:28.422Z,9.80
2022-12-24T17:48:56.039Z,19.40
2022-12-24T17:51:23.647Z,27.33
2022-12-24T17:53:50.723Z,37.73
2022-12-24T17:56:17.866Z,20.57
2022-12-24T17:58:46.137Z,11.30
2022-12-24T18:01:15.456Z,10.53
2022-12-24T18:03:42.762Z,10.53
2022-12-24T18:06:14.098Z,12.30
2022-12-24T18:08:46.497Z,11.63
2022-12-24T18:11:22.101Z,12.77
2022-12-24T18:13:49.915Z,12.60
2022-12-24T18:16:40.217Z,13.57
2022-12-24T18:19:10.264Z,13.20
2022-12-24T18:21:37.275Z,14.10
2022-12-24T18:24:05.073Z,12.90
2022-12-24T18:26:33.336Z,13.13
2022-12-24T18:29:04.450Z,12.83
2022-12-24T18:31:33.644Z,13.60
2022-12-24T18:34:02.295Z,13.00
2022-12-24T18:36:29.189Z,13.60
2022-12-24T18:38:56.278Z,13.73
2022-12-24T18:41:26.005Z,13.20
2022-12-24T18:43:53.651Z,12.73
2022-12-24T18:46:23.751Z,13.33
2022-12-24T18:48:51.494Z,12.53
2022-12-24T18:51:20.080Z,13.30
2022-12-24T18:53:46.857Z,13.03
2022-12-24T18:56:18.754Z,14.43
2022-12-24T18:58:49.196Z,12.60
2022-12-24T19:01:21.606Z,13.70
2022-12-24T19:03:50.559Z,13.27
2022-12-24T19:06:17.778Z,14.47
2022-12-24T19:09:01.529Z,12.83
2022-12-24T19:11:33.164Z,12.47
2022-12-24T19:14:01.537Z,13.20
2022-12-24T19:16:30.097Z,12.63
2022-12-24T19:18:57.763Z,11.70
2022-12-24T19:21:24.812Z,12.47
2022-12-24T19:23:51.967Z,12.17
2022-12-24T19:26:19.875Z,12.37
2022-12-24T19:28:49.556Z,13.00
2022-12-24T19:31:22.129Z,12.47
2022-12-24T19:33:54.860Z,11.73
2022-12-24T19:36:24.279Z,11.97
2022-12-24T19:38:51.242Z,10.27
2022-12-24T19:41:20.247Z,10.37
2022-12-24T19:43:49.383Z,10.53
2022-12-24T19:46:18.984Z,11.47
2022-12-24T19:48:57.332Z,12.43
2022-12-24T19:51:27.291Z,11.60
2022-12-24T19:53:55.160Z,11.63
2022-12-24T19:56:29.998Z,10.87
2022-12-24T19:58:57.780Z,10.63
2022-12-24T20:01:26.821Z,12.23
2022-12-24T20:03:54.530Z,12.97
2022-12-24T20:06:25.301Z,11.80
2022-12-24T20:08:52.012Z,10.53
2022-12-24T20:11:21.020Z,11.47
2022-12-24T20:13:47.859Z,11.13
2022-12-24T20:16:22.647Z,10.40
2022-12-24T20:18:58.657Z,10.73
2022-12-24T20:21:26.374Z,10.93
2022-12-24T20:23:54.180Z,10.27
2022-12-24T20:26:23.666Z,12.23
2022-12-24T20:28:51.161Z,9.97
2022-12-24T20:31:19.500Z,10.67
2022-12-24T20:33:48.567Z,10.83
2022-12-24T20:36:18.443Z,10.57
2022-12-24T20:38:46.296Z,10.80
2022-12-24T20:41:15.705Z,10.93
2022-12-24T20:43:47.812Z,11.60
2022-12-24T20:46:20.488Z,11.77
2022-12-24T20:48:47.779Z,10.67
2022-12-24T20:51:23.365Z,11.37
2022-12-24T20:53:53.530Z,10.60
2022-12-24T20:56:20.688Z,10.37
2022-12-24T20:58:47.728Z,11.90
2022-12-24T21:01:24.771Z,11.27
2022-12-24T21:03:56.168Z,10.40
2022-12-24T21:06:24.428Z,10.73
2022-12-24T21:08:52.570Z,11.17
2022-12-24T21:11:38.535Z,10.00
2022-12-24T21:14:05.346Z,9.87
2022-12-24T21:16:34.425Z,9.87
2022-12-24T21:19:04.653Z,10.43
2022-12-24T21:21:31.859Z,9.53
2022-12-24T21:23:58.945Z,9.93
2022-12-24T21:26:25.692Z,10.37
2022-12-24T21:28:55.752Z,9.23
2022-12-24T21:31:22.645Z,10.37
2022-12-24T21:33:49.445Z,9.47
2022-12-24T21:36:17.207Z,9.30
2022-12-24T21:38:43.969Z,10.47
2022-12-24T21:41:13.597Z,9.83
2022-12-24T21:43:40.600Z,9.40
2022-12-24T21:46:13.486Z,9.67
2022-12-24T21:48:58.861Z,10.17
2022-12-24T21:51:27.002Z,9.10
2022-12-24T21:54:12.282Z,9.07
2022-12-24T21:57:00.839Z,9.27
2022-12-24T21:59:27.957Z,9.20
2022-12-24T22:01:56.116Z,9.00
2022-12-24T22:04:26.636Z,9.83
2022-12-24T22:07:15.315Z,9.27
2022-12-24T22:10:00.631Z,8.87
2022-12-24T22:12:30.795Z,8.80
2022-12-24T22:14:57.715Z,8.90
2022-12-24T22:17:25.811Z,8.17
2022-12-24T22:19:53.950Z,8.33
2022-12-24T22:22:21.697Z,9.73
2022-12-24T22:24:48.526Z,9.17
2022-12-24T22:27:15.365Z,8.57
2022-12-24T22:29:42.143Z,8.33
2022-12-24T22:32:09.099Z,8.57
2022-12-24T22:34:36.175Z,8.50
2022-12-24T22:37:03.028Z,7.90
2022-12-24T22:39:29.787Z,8.37
2022-12-24T22:41:59.046Z,8.87
2022-12-24T22:44:26.038Z,8.23
2022-12-24T22:46:53.017Z,8.23
2022-12-24T22:49:19.919Z,8.43
2022-12-24T22:51:46.771Z,8.23
2022-12-24T22:54:13.673Z,8.57
2022-12-24T22:56:41.760Z,7.80
2022-12-24T22:59:12.586Z,7.70
2022-12-24T23:01:44.502Z,8.60
2022-12-24T23:04:14.959Z,8.10
2022-12-24T23:06:43.445Z,8.13
2022-12-24T23:09:12.935Z,8.77
2022-12-24T23:11:40.453Z,7.60
2022-12-24T23:14:26.250Z,7.93
2022-12-24T23:16:53.141Z,8.20
2022-12-24T23:19:19.835Z,8.67
2022-12-24T23:21:46.544Z,7.57
2022-12-24T23:24:13.652Z,7.13
2022-12-24T23:26:40.846Z,7.70
2022-12-24T23:29:10.647Z,8.47
2022-12-24T23:31:37.839Z,10.13
2022-12-24T23:34:04.737Z,11.00
2022-12-24T23:36:31.502Z,9.67
2022-12-24T23:38:58.270Z,10.63
2022-12-24T23:41:25.514Z,9.10
2022-12-24T23:43:52.320Z,9.03
2022-12-24T23:46:20.399Z,8.30
2022-12-24T23:48:47.787Z,7.97
2022-12-24T23:51:17.768Z,8.10
2022-12-24T23:53:44.491Z,7.67
2022-12-24T23:56:12.259Z,7.27
2022-12-24T23:58:40.935Z,6.57
